Time;durP1;ratioP1;P1;durP2;ratioP2;P2;SDS_P1;SDS_P2;PMS_P1;PMS_P2;Temp;Humidity;BMP_temperature;BMP_pressure;BME280_temperature;BME280_humidity;BME280_pressure;Samples;Min_cycle;Max_cycle;Signal;HPM_P1;HPM_P2
2023/01/18 00:00:36;;;;;;;25.27;17.93;;;-2.90;99.90;;;;;;4997575;28;20251;-67
2023/01/18 00:03:03;;;;;;;20.27;16.77;;;-2.90;99.90;;;;;;5012388;28;20247;-67
2023/01/18 00:05:29;;;;;;;26.00;17.43;;;-2.90;99.90;;;;;;4997595;28;20596;-67
2023/01/18 00:07:55;;;;;;;20.97;17.37;;;-3.00;99.90;;;;;;4997498;28;20179;-67
2023/01/18 00:10:21;;;;;;;21.17;16.27;;;-3.00;99.90;;;;;;4997183;28;20251;-67
2023/01/18 00:12:48;;;;;;;20.27;17.20;;;-3.00;99.90;;;;;;4995707;28;20200;-67
2023/01/18 00:15:13;;;;;;;20.97;17.33;;;-3.00;99.90;;;;;;4997562;28;20184;-67
2023/01/18 00:17:50;;;;;;;19.10;17.07;;;-2.90;99.90;;;;;;4997408;28;20667;-67
2023/01/18 00:20:18;;;;;;;22.23;17.33;;;-2.90;99.90;;;;;;4997354;28;20187;-67
2023/01/18 00:22:44;;;;;;;22.63;18.00;;;-2.90;99.90;;;;;;4997232;28;20222;-67
2023/01/18 00:25:10;;;;;;;23.93;17.87;;;-2.90;99.90;;;;;;4997440;28;20204;-67
2023/01/18 00:27:36;;;;;;;19.23;16.73;;;-2.90;99.90;;;;;;4997028;28;20562;-67
2023/01/18 00:30:06;;;;;;;19.90;17.00;;;-2.80;99.90;;;;;;4996895;28;20173;-67
2023/01/18 00:32:33;;;;;;;24.77;18.97;;;-2.90;99.90;;;;;;5011875;28;20211;-67
2023/01/18 00:34:59;;;;;;;22.50;18.33;;;-2.90;99.90;;;;;;4997903;28;20577;-67
2023/01/18 00:37:26;;;;;;;26.23;17.70;;;-2.90;99.90;;;;;;4996233;28;20173;-67
2023/01/18 00:39:52;;;;;;;20.70;17.47;;;-2.90;99.90;;;;;;5011662;28;20181;-67
2023/01/18 00:45:02;;;;;;;23.00;17.07;;;-2.90;99.90;;;;;;4996562;28;20717;-67
2023/01/18 00:47:28;;;;;;;19.87;17.60;;;-2.90;99.90;;;;;;4997293;28;20204;-67
2023/01/18 00:49:54;;;;;;;23.83;18.03;;;-3.00;99.90;;;;;;4998556;28;20180;-67
2023/01/18 00:52:19;;;;;;;21.13;16.00;;;-3.00;99.90;;;;;;5012130;28;20739;-67
2023/01/18 00:54:45;;;;;;;18.47;16.40;;;-3.00;99.90;;;;;;5012004;28;20558;-67
2023/01/18 00:57:11;;;;;;;22.47;17.50;;;-3.00;99.90;;;;;;4995370;28;20218;-67
2023/01/18 00:59:36;;;;;;;20.20;16.40;;;-3.00;99.90;;;;;;4997166;28;20182;-67
2023/01/18 01:02:02;;;;;;;19.23;16.83;;;-3.10;99.90;;;;;;4995019;28;20699;-67
2023/01/18 01:07:12;;;;;;;20.63;16.23;;;-3.10;99.90;;;;;;4996556;28;20625;-67
2023/01/18 01:09:38;;;;;;;21.47;16.67;;;-3.10;99.90;;;;;;4994844;28;20180;-67
2023/01/18 01:26:12;;;;;;;19.23;16.30;;;-3.20;99.90;;;;;;4996315;28;20207;-67
2023/01/18 01:28:40;;;;;;;19.60;16.93;;;-3.10;99.90;;;;;;5010868;28;20173;-67
2023/01/18 01:31:09;;;;;;;18.93;16.50;;;-3.20;99.90;;;;;;4995945;28;20207;-66
2023/01/18 01:33:35;;;;;;;18.50;16.50;;;-3.20;99.90;;;;;;4995671;28;20204;-67
2023/01/18 01:36:08;;;;;;;25.63;18.57;;;-3.20;99.90;;;;;;5010619;28;20645;-67
2023/01/18 01:38:34;;;;;;;23.03;16.60;;;-3.30;99.90;;;;;;4994467;28;20185;-67
2023/01/18 01:41:12;;;;;;;22.07;18.10;;;-3.40;99.90;;;;;;4996301;28;20204;-67
2023/01/18 01:43:52;;;;;;;20.40;17.40;;;-3.40;99.90;;;;;;4995411;28;20215;-67
2023/01/18 01:46:24;;;;;;;22.93;17.00;;;-3.40;99.90;;;;;;5010419;28;20192;-67
2023/01/18 01:48:57;;;;;;;25.80;17.30;;;-3.30;99.90;;;;;;4994023;28;20271;-67
2023/01/18 01:51:23;;;;;;;22.47;15.20;;;-3.30;99.90;;;;;;4994120;28;20638;-67
2023/01/18 01:53:50;;;;;;;19.37;16.77;;;-3.30;99.90;;;;;;4995287;28;20208;-67
2023/01/18 01:56:19;;;;;;;25.70;18.17;;;-3.30;99.90;;;;;;4995150;28;20180;-67
2023/01/18 01:58:48;;;;;;;26.90;18.70;;;-3.30;99.90;;;;;;4993850;28;20191;-67
2023/01/18 02:01:14;;;;;;;25.03;16.90;;;-3.30;99.90;;;;;;4994981;28;20201;-67
2023/01/18 02:03:41;;;;;;;18.97;16.97;;;-3.20;99.90;;;;;;4995405;28;20223;-67
2023/01/18 02:06:31;;;;;;;19.87;17.23;;;-3.20;99.90;;;;;;4995031;28;20172;-67
2023/01/18 02:08:59;;;;;;;22.67;17.80;;;-3.20;99.90;;;;;;4995174;28;20259;-67
2023/01/18 02:11:25;;;;;;;22.63;17.57;;;-3.30;99.90;;;;;;4995012;28;20169;-67
2023/01/18 02:13:53;;;;;;;19.20;16.67;;;-3.30;99.90;;;;;;4994791;28;20251;-67
2023/01/18 02:16:37;;;;;;;21.17;17.30;;;-3.40;99.90;;;;;;4995031;28;20637;-67
2023/01/18 02:19:30;;;;;;;22.97;17.83;;;-3.50;99.90;;;;;;4994911;28;20621;-67
2023/01/18 02:22:10;;;;;;;20.87;16.53;;;-3.50;99.90;;;;;;4994696;28;20664;-67
2023/01/18 02:24:50;;;;;;;30.30;17.50;;;-3.60;99.90;;;;;;4995239;28;20671;-67
2023/01/18 02:27:27;;;;;;;17.90;16.10;;;-3.50;99.90;;;;;;4994619;28;20169;-67
2023/01/18 02:30:24;;;;;;;19.57;17.00;;;-3.50;99.90;;;;;;4994907;28;20168;-67
2023/01/18 02:32:49;;;;;;;19.77;16.40;;;-3.40;99.90;;;;;;4967599;28;20204;-67
2023/01/18 02:35:43;;;;;;;23.47;17.13;;;-3.50;99.90;;;;;;4994702;28;20181;-67
2023/01/18 02:38:25;;;;;;;19.97;16.77;;;-3.60;99.90;;;;;;5009835;28;20199;-67
2023/01/18 02:41:10;;;;;;;23.80;17.60;;;-3.60;99.90;;;;;;4994787;28;20191;-66
2023/01/18 02:46:29;;;;;;;22.00;17.43;;;-3.50;99.90;;;;;;4994402;28;20195;-64
2023/01/18 02:49:03;;;;;;;25.37;17.90;;;-3.40;99.90;;;;;;4994370;28;20183;-65
2023/01/18 02:51:29;;;;;;;26.03;17.63;;;-3.40;99.90;;;;;;4994317;28;20622;-65
2023/01/18 02:53:56;;;;;;;26.90;16.90;;;-3.40;99.90;;;;;;4994099;28;20235;-64
2023/01/18 02:56:27;;;;;;;20.63;17.43;;;-3.50;99.90;;;;;;4994734;28;20216;-65
2023/01/18 02:59:11;;;;;;;21.33;16.27;;;-3.60;99.90;;;;;;4994071;28;20634;-64
2023/01/18 03:01:45;;;;;;;17.87;15.80;;;-3.60;99.90;;;;;;4993630;28;20189;-64
2023/01/18 03:04:25;;;;;;;23.80;17.80;;;-3.60;99.90;;;;;;4994017;28;20661;-65
2023/01/18 03:06:56;;;;;;;22.27;19.10;;;-3.50;99.90;;;;;;4994156;28;20227;-64
2023/01/18 03:09:25;;;;;;;28.13;17.60;;;-3.60;99.90;;;;;;4994363;28;20168;-64
2023/01/18 03:12:04;;;;;;;19.33;16.43;;;-3.60;99.90;;;;;;4994505;28;20248;-65
2023/01/18 03:14:51;;;;;;;18.30;16.30;;;-3.60;99.90;;;;;;4993998;28;20207;-64
2023/01/18 03:17:36;;;;;;;21.63;17.30;;;-3.60;99.90;;;;;;4973346;28;20177;-64
2023/01/18 03:20:08;;;;;;;20.70;17.67;;;-3.60;99.90;;;;;;4974873;28;20193;-64
2023/01/18 03:25:41;;;;;;;24.23;17.53;;;-3.60;99.90;;;;;;4974812;28;20264;-65
2023/01/18 03:34:24;;;;;;;23.43;17.87;;;-3.50;99.90;;;;;;4974908;28;20212;-64
2023/01/18 03:36:52;;;;;;;18.40;16.40;;;-3.60;99.90;;;;;;4974474;28;20194;-64
2023/01/18 03:39:29;;;;;;;19.73;15.43;;;-3.50;99.90;;;;;;4974762;28;20166;-64
2023/01/18 03:42:00;;;;;;;24.50;17.90;;;-3.50;99.90;;;;;;4974567;28;20236;-64
2023/01/18 03:44:42;;;;;;;21.47;18.00;;;-3.50;99.90;;;;;;4972902;28;20208;-64
2023/01/18 03:47:08;;;;;;;21.57;16.30;;;-3.50;99.90;;;;;;4974523;28;20158;-64
2023/01/18 03:49:34;;;;;;;24.83;17.93;;;-3.40;99.90;;;;;;4974310;28;20181;-64
2023/01/18 03:52:09;;;;;;;27.03;18.37;;;-3.50;99.90;;;;;;4972920;28;20646;-64
2023/01/18 03:54:46;;;;;;;19.30;17.07;;;-3.60;99.90;;;;;;4974111;28;20273;-64
2023/01/18 03:57:22;;;;;;;22.67;17.60;;;-3.70;99.90;;;;;;4973022;28;20169;-64
2023/01/18 03:59:48;;;;;;;24.30;16.97;;;-3.80;99.90;;;;;;4974558;28;20196;-64
2023/01/18 04:02:16;;;;;;;26.13;16.90;;;-3.70;99.90;;;;;;4974050;28;20287;-64
2023/01/18 04:04:41;;;;;;;24.43;17.43;;;-3.70;99.90;;;;;;4972773;28;20188;-64
2023/01/18 04:07:07;;;;;;;24.00;16.77;;;-3.80;99.90;;;;;;4972855;28;20174;-64
2023/01/18 04:09:33;;;;;;;21.40;17.60;;;-3.70;99.90;;;;;;4974154;28;20220;-65
2023/01/18 04:11:59;;;;;;;25.27;17.27;;;-3.80;99.90;;;;;;4972874;28;20185;-64
2023/01/18 04:14:25;;;;;;;25.43;17.70;;;-3.80;99.90;;;;;;4975479;28;20226;-64
2023/01/18 04:16:51;;;;;;;26.57;19.00;;;-3.80;99.90;;;;;;4993873;28;20195;-64
2023/01/18 04:19:17;;;;;;;26.23;19.07;;;-3.90;99.90;;;;;;4995752;28;20259;-64
2023/01/18 04:21:43;;;;;;;24.53;18.20;;;-3.90;99.90;;;;;;4997017;28;20196;-64
2023/01/18 04:24:10;;;;;;;24.17;18.90;;;-3.90;99.90;;;;;;4997421;28;20219;-64
2023/01/18 04:26:36;;;;;;;28.43;18.97;;;-3.80;99.90;;;;;;4995698;28;20323;-65
2023/01/18 04:29:02;;;;;;;31.40;18.73;;;-3.80;99.90;;;;;;4995242;28;20180;-65
2023/01/18 04:31:28;;;;;;;28.60;18.93;;;-3.80;99.90;;;;;;4996540;28;20204;-64
2023/01/18 04:33:54;;;;;;;35.10;21.10;;;-3.70;99.90;;;;;;4996519;28;20258;-64
2023/01/18 04:36:21;;;;;;;30.17;18.77;;;-3.60;99.90;;;;;;4996938;28;20256;-64
2023/01/18 04:38:51;;;;;;;36.47;19.30;;;-3.50;99.90;;;;;;4995330;28;20526;-64
2023/01/18 04:41:16;;;;;;;29.47;19.13;;;-3.50;99.90;;;;;;4995052;28;20201;-64
2023/01/18 04:43:42;;;;;;;29.60;20.07;;;-3.50;99.90;;;;;;5011083;28;20223;-64
2023/01/18 04:46:08;;;;;;;34.10;19.27;;;-3.60;99.90;;;;;;4996057;28;20180;-64
2023/01/18 04:48:33;;;;;;;26.47;19.50;;;-3.60;99.90;;;;;;5011291;28;20188;-68
2023/01/18 04:50:59;;;;;;;25.83;18.80;;;-3.60;99.90;;;;;;4996382;28;20205;-64
2023/01/18 04:53:25;;;;;;;24.23;18.67;;;-3.60;99.90;;;;;;4996012;28;20231;-64
2023/01/18 04:55:51;;;;;;;30.20;19.90;;;-3.50;99.90;;;;;;4995983;28;20181;-64
2023/01/18 04:58:16;;;;;;;32.93;18.80;;;-3.50;99.90;;;;;;4996064;28;20176;-64
2023/01/18 05:00:42;;;;;;;24.87;18.80;;;-3.40;99.90;;;;;;4996238;28;20607;-64
2023/01/18 05:03:09;;;;;;;27.97;20.07;;;-3.40;99.90;;;;;;4994506;28;20701;-64
2023/01/18 05:05:35;;;;;;;27.47;19.57;;;-3.50;99.90;;;;;;4996357;28;20197;-63
2023/01/18 05:08:01;;;;;;;25.20;19.17;;;-3.50;99.90;;;;;;4994775;28;20222;-63
2023/01/18 05:10:27;;;;;;;27.13;18.10;;;-3.50;99.90;;;;;;5010834;28;20173;-63
2023/01/18 05:12:53;;;;;;;30.80;20.00;;;-3.60;99.90;;;;;;4995856;28;20193;-64
2023/01/18 05:15:18;;;;;;;29.00;20.80;;;-3.50;99.90;;;;;;4996044;28;20250;-64
2023/01/18 05:17:44;;;;;;;37.77;20.93;;;-3.60;99.90;;;;;;4995891;28;20493;-64
2023/01/18 05:20:11;;;;;;;30.33;19.77;;;-3.60;99.90;;;;;;4995768;28;20643;-64
2023/01/18 05:22:37;;;;;;;27.10;18.33;;;-3.60;99.90;;;;;;4995223;28;20673;-64
2023/01/18 05:25:04;;;;;;;26.77;19.47;;;-3.70;99.90;;;;;;4995123;28;20169;-64
2023/01/18 05:27:30;;;;;;;31.53;19.33;;;-3.70;99.90;;;;;;4995159;28;20168;-65
2023/01/18 05:29:56;;;;;;;29.50;19.83;;;-3.60;99.90;;;;;;4995361;28;20172;-64
2023/01/18 05:32:21;;;;;;;31.37;21.47;;;-3.60;99.90;;;;;;4995150;28;20627;-64
2023/01/18 05:34:47;;;;;;;31.87;20.17;;;-3.70;99.90;;;;;;4994003;28;20193;-64
2023/01/18 05:37:13;;;;;;;24.67;18.50;;;-3.70;99.90;;;;;;4993833;28;20578;-64
2023/01/18 05:39:40;;;;;;;26.33;18.73;;;-3.70;99.90;;;;;;4995159;28;20173;-64
2023/01/18 05:42:05;;;;;;;29.77;21.50;;;-3.70;99.90;;;;;;4995393;28;20631;-64
2023/01/18 05:44:31;;;;;;;27.90;19.20;;;-3.80;99.90;;;;;;4995069;28;20283;-64
2023/01/18 05:46:58;;;;;;;27.23;20.50;;;-3.90;99.90;;;;;;4994870;28;20597;-64
2023/01/18 05:49:24;;;;;;;35.00;20.33;;;-4.00;99.90;;;;;;4995167;28;20280;-64
2023/01/18 05:51:50;;;;;;;34.07;21.20;;;-4.00;99.90;;;;;;4994912;28;20177;-64
2023/01/18 05:54:16;;;;;;;31.60;20.87;;;-4.00;99.90;;;;;;4993703;28;20287;-64
2023/01/18 05:56:41;;;;;;;30.83;20.87;;;-4.00;99.90;;;;;;4994970;28;20176;-64
2023/01/18 05:59:07;;;;;;;26.77;20.07;;;-4.00;99.90;;;;;;4994888;28;20716;-64
2023/01/18 06:01:33;;;;;;;30.13;21.23;;;-4.00;99.90;;;;;;4993483;28;20204;-64
2023/01/18 06:03:59;;;;;;;28.97;20.27;;;-4.00;99.90;;;;;;4994834;28;20684;-64
2023/01/18 06:06:25;;;;;;;30.57;20.77;;;-4.00;99.90;;;;;;4994798;28;20251;-64
2023/01/18 06:08:50;;;;;;;29.33;20.23;;;-4.00;99.90;;;;;;4994819;28;20669;-64
2023/01/18 06:11:16;;;;;;;29.07;19.37;;;-4.00;99.90;;;;;;4994763;28;20176;-65
2023/01/18 06:13:42;;;;;;;28.03;20.73;;;-4.10;99.90;;;;;;5009678;28;20204;-65
2023/01/18 06:16:08;;;;;;;35.67;20.13;;;-4.10;99.90;;;;;;4994502;28;20180;-64
2023/01/18 06:18:34;;;;;;;34.63;20.00;;;-4.10;99.90;;;;;;4994366;28;20657;-64
2023/01/18 06:21:01;;;;;;;32.50;20.47;;;-4.20;99.90;;;;;;4993042;28;20184;-64
2023/01/18 06:23:28;;;;;;;28.57;19.63;;;-4.20;99.90;;;;;;4994854;28;20195;-65
2023/01/18 06:25:55;;;;;;;29.13;19.57;;;-4.10;99.90;;;;;;4994567;28;20176;-64
2023/01/18 06:28:23;;;;;;;24.50;20.13;;;-4.00;99.90;;;;;;5009230;28;20708;-64
2023/01/18 06:30:53;;;;;;;30.70;20.80;;;-4.10;99.90;;;;;;4994382;28;20259;-64
2023/01/18 06:33:20;;;;;;;29.70;19.37;;;-4.10;99.90;;;;;;4994142;28;20615;-64
2023/01/18 06:35:46;;;;;;;29.40;20.00;;;-4.20;99.90;;;;;;4993588;28;20169;-64
2023/01/18 06:38:12;;;;;;;28.87;20.00;;;-4.10;99.90;;;;;;4993918;28;20169;-64
2023/01/18 06:40:38;;;;;;;27.83;20.43;;;-4.10;99.90;;;;;;4992660;28;20176;-64
2023/01/18 06:43:06;;;;;;;29.00;20.57;;;-4.00;99.90;;;;;;5008733;28;20220;-64
2023/01/18 06:45:32;;;;;;;27.20;21.20;;;-4.00;99.90;;;;;;4994290;28;20187;-64
2023/01/18 06:47:58;;;;;;;31.20;20.37;;;-4.10;99.90;;;;;;4995074;28;20176;-64
2023/01/18 06:50:24;;;;;;;36.47;21.47;;;-4.10;99.90;;;;;;5008967;28;20645;-64
2023/01/18 06:52:50;;;;;;;34.20;21.20;;;-4.20;99.90;;;;;;4994310;28;20189;-64
2023/01/18 06:55:17;;;;;;;29.23;20.20;;;-4.20;99.90;;;;;;5009242;28;20724;-64
2023/01/18 06:57:43;;;;;;;30.53;19.83;;;-4.30;99.90;;;;;;4993996;28;20211;-64
2023/01/18 07:00:10;;;;;;;27.13;18.90;;;-4.30;99.90;;;;;;4992708;28;20216;-64
2023/01/18 07:02:36;;;;;;;25.83;18.53;;;-4.20;99.90;;;;;;4992280;28;20215;-64
2023/01/18 07:05:03;;;;;;;22.27;19.20;;;-4.20;99.90;;;;;;5008813;28;20180;-64
2023/01/18 07:07:29;;;;;;;22.63;17.37;;;-4.20;99.90;;;;;;4993982;28;20228;-63
2023/01/18 07:09:54;;;;;;;21.83;19.47;;;-4.20;99.90;;;;;;4993992;28;20635;-64
2023/01/18 07:12:20;;;;;;;24.73;17.47;;;-4.20;99.90;;;;;;4993494;28;20272;-64
2023/01/18 07:14:47;;;;;;;21.83;18.17;;;-4.20;99.90;;;;;;5008622;28;20180;-64
2023/01/18 07:17:13;;;;;;;23.90;19.23;;;-4.10;99.90;;;;;;4992691;28;20180;-64
2023/01/18 07:19:39;;;;;;;21.97;18.13;;;-4.10;99.90;;;;;;4993979;28;20184;-64
2023/01/18 07:22:05;;;;;;;23.90;18.80;;;-4.00;99.90;;;;;;4993862;28;20204;-64
2023/01/18 07:24:30;;;;;;;26.07;18.33;;;-4.00;99.90;;;;;;4993836;28;20620;-64
2023/01/18 07:26:58;;;;;;;22.47;18.97;;;-4.00;99.90;;;;;;4992626;28;20183;-64
2023/01/18 07:29:24;;;;;;;26.10;18.80;;;-3.90;99.90;;;;;;4992373;28;20176;-64
2023/01/18 07:31:50;;;;;;;25.53;18.67;;;-3.90;99.90;;;;;;4993722;28;20179;-64
2023/01/18 07:34:16;;;;;;;24.47;18.33;;;-3.90;99.90;;;;;;5008851;28;20204;-64
2023/01/18 07:36:42;;;;;;;23.53;18.97;;;-4.00;99.90;;;;;;4994360;28;20180;-64
2023/01/18 07:39:09;;;;;;;24.57;19.83;;;-4.00;99.90;;;;;;5009051;28;20266;-64
2023/01/18 07:41:35;;;;;;;34.03;21.50;;;-4.10;99.90;;;;;;4993818;28;20216;-63
2023/01/18 07:44:01;;;;;;;26.73;18.20;;;-4.20;99.90;;;;;;4993448;28;20295;-64
2023/01/18 07:46:27;;;;;;;33.50;23.73;;;-4.10;99.90;;;;;;4993716;28;20223;-64
2023/01/18 07:48:53;;;;;;;29.93;20.60;;;-4.10;99.90;;;;;;4997441;28;20629;-63
2023/01/18 07:51:21;;;;;;;29.60;20.63;;;-4.10;99.90;;;;;;4997435;28;20244;-63
2023/01/18 07:53:47;;;;;;;28.53;20.77;;;-4.10;99.90;;;;;;4997348;28;20197;-64
2023/01/18 07:56:17;;;;;;;24.53;18.57;;;-4.10;99.90;;;;;;4996080;28;20185;-64
2023/01/18 07:58:44;;;;;;;22.40;18.70;;;-4.20;99.90;;;;;;5012302;28;20172;-64
2023/01/18 08:01:12;;;;;;;31.13;21.47;;;-4.10;99.90;;;;;;4997306;28;20187;-64
2023/01/18 08:03:38;;;;;;;29.63;19.70;;;-4.20;99.90;;;;;;4997147;28;20196;-64
2023/01/18 08:06:06;;;;;;;26.60;20.03;;;-4.20;99.90;;;;;;5012266;28;20184;-64
2023/01/18 08:08:33;;;;;;;25.57;20.57;;;-4.10;99.90;;;;;;5012229;28;20267;-64
2023/01/18 08:11:00;;;;;;;28.37;20.10;;;-4.00;99.90;;;;;;5012281;28;20191;-64
2023/01/18 08:13:26;;;;;;;25.37;19.53;;;-4.10;99.90;;;;;;5011973;28;20201;-64
2023/01/18 08:15:54;;;;;;;23.77;19.80;;;-4.10;99.90;;;;;;4997094;28;20176;-64
2023/01/18 08:18:20;;;;;;;29.73;20.10;;;-4.10;99.90;;;;;;5012012;28;20725;-64
2023/01/18 08:20:47;;;;;;;30.10;21.13;;;-4.00;99.90;;;;;;5012089;28;20184;-64
2023/01/18 08:23:14;;;;;;;33.73;22.60;;;-4.00;99.90;;;;;;5011942;28;20209;-64
2023/01/18 08:25:40;;;;;;;25.23;19.83;;;-3.90;99.90;;;;;;4997115;28;20557;-64
2023/01/18 08:28:06;;;;;;;30.83;20.83;;;-3.90;99.90;;;;;;4997138;28;20173;-64
2023/01/18 08:30:36;;;;;;;27.70;20.37;;;-3.80;99.90;;;;;;5011915;28;20172;-64
2023/01/18 08:33:03;;;;;;;30.40;21.17;;;-3.80;99.90;;;;;;4996614;28;20196;-64
2023/01/18 08:35:33;;;;;;;27.70;21.10;;;-3.80;99.90;;;;;;5011845;28;20553;-64
2023/01/18 08:38:00;;;;;;;40.30;25.53;;;-3.70;99.90;;;;;;4995445;28;20191;-64
2023/01/18 08:40:27;;;;;;;29.93;22.27;;;-3.70;99.90;;;;;;4996629;28;20181;-64
2023/01/18 08:42:57;;;;;;;25.60;22.57;;;-3.60;99.90;;;;;;4996378;28;20216;-64
2023/01/18 08:45:23;;;;;;;34.37;24.00;;;-3.60;99.90;;;;;;5011483;28;20188;-64
2023/01/18 08:47:56;;;;;;;25.73;19.33;;;-3.50;99.90;;;;;;5011880;28;20573;-64
2023/01/18 08:50:22;;;;;;;25.23;21.07;;;-3.50;99.90;;;;;;4996967;28;20180;-64
2023/01/18 08:52:47;;;;;;;25.80;19.87;;;-3.50;99.90;;;;;;5011366;28;20208;-64
2023/01/18 08:55:13;;;;;;;26.90;18.63;;;-3.50;99.90;;;;;;4996549;28;20176;-64
2023/01/18 08:57:39;;;;;;;25.43;20.37;;;-3.40;99.90;;;;;;4994870;28;20180;-64
2023/01/18 09:00:05;;;;;;;26.77;20.07;;;-3.40;99.90;;;;;;4994281;28;20181;-64
2023/01/18 09:02:31;;;;;;;24.53;20.03;;;-3.30;99.90;;;;;;4995989;28;20568;-64
2023/01/18 09:04:57;;;;;;;27.97;20.87;;;-3.20;99.90;;;;;;4994853;28;20177;-64
2023/01/18 09:07:23;;;;;;;28.63;20.60;;;-3.20;99.90;;;;;;4996425;28;20196;-64
2023/01/18 09:09:48;;;;;;;27.07;21.00;;;-3.20;99.90;;;;;;4994806;28;20188;-64
2023/01/18 09:12:14;;;;;;;23.57;19.30;;;-3.10;99.90;;;;;;4994685;28;20592;-64
2023/01/18 09:14:40;;;;;;;26.27;20.27;;;-3.00;99.90;;;;;;4995811;28;20216;-64
2023/01/18 09:17:05;;;;;;;23.53;18.47;;;-3.00;99.90;;;;;;4995949;28;20204;-64
2023/01/18 09:19:31;;;;;;;30.43;20.57;;;-2.80;99.90;;;;;;4994619;28;20530;-64
2023/01/18 09:21:57;;;;;;;24.20;20.27;;;-2.80;99.90;;;;;;5010811;28;20603;-64
2023/01/18 09:24:23;;;;;;;25.90;19.67;;;-2.70;99.90;;;;;;4995763;28;20189;-64
2023/01/18 09:26:52;;;;;;;26.50;20.60;;;-2.60;99.90;;;;;;4995804;28;20172;-64
2023/01/18 09:29:19;;;;;;;24.83;20.03;;;-2.60;99.90;;;;;;4995594;28;20172;-64
2023/01/18 09:31:45;;;;;;;30.70;20.93;;;-2.60;99.90;;;;;;4995652;28;20664;-64
2023/01/18 09:34:15;;;;;;;30.70;20.30;;;-2.60;99.90;;;;;;5010497;28;20204;-64
2023/01/18 09:36:41;;;;;;;25.97;20.47;;;-2.50;99.90;;;;;;4995923;28;20683;-64
2023/01/18 09:39:07;;;;;;;26.23;19.20;;;-2.50;99.90;;;;;;4995504;28;20172;-64
2023/01/18 09:41:48;;;;;;;30.53;21.43;;;-2.40;99.90;;;;;;4994193;28;20196;-64
2023/01/18 09:44:16;;;;;;;23.87;19.10;;;-2.30;99.90;;;;;;4995186;28;20708;-65
2023/01/18 09:46:43;;;;;;;29.17;21.50;;;-2.40;99.90;;;;;;4995470;28;20220;-65
2023/01/18 09:49:18;;;;;;;33.80;22.83;;;-2.30;99.90;;;;;;4995929;28;20177;-64
2023/01/18 09:51:47;;;;;;;29.67;21.27;;;-2.30;99.90;;;;;;4995478;28;20210;-64
2023/01/18 09:54:55;;;;;;;32.63;22.77;;;-2.20;99.90;;;;;;4994077;28;20200;-65
2023/01/18 09:57:49;;;;;;;30.63;22.37;;;-2.10;99.90;;;;;;4985096;28;20214;-66
2023/01/18 10:00:21;;;;;;;31.97;22.83;;;-2.10;99.90;;;;;;4995214;28;20180;-66
2023/01/18 10:02:50;;;;;;;33.33;23.13;;;-2.00;99.90;;;;;;4995065;28;20286;-66
2023/01/18 10:05:29;;;;;;;35.10;23.20;;;-2.00;99.90;;;;;;4995013;28;20173;-66
2023/01/18 10:08:01;;;;;;;32.00;21.93;;;-2.00;99.90;;;;;;4995277;28;20168;-66
2023/01/18 10:10:39;;;;;;;30.83;22.87;;;-1.90;99.90;;;;;;4994400;28;20340;-66
2023/01/18 10:13:23;;;;;;;33.37;25.03;;;-1.90;99.90;;;;;;4994714;28;20195;-66
2023/01/18 10:15:49;;;;;;;38.67;26.23;;;-1.90;99.90;;;;;;4994797;28;20266;-66
2023/01/18 10:18:17;;;;;;;55.83;31.87;;;-1.80;99.90;;;;;;5009872;28;20654;-66
2023/01/18 10:20:45;;;;;;;45.70;28.27;;;-1.70;99.90;;;;;;5009762;28;20180;-66
2023/01/18 10:23:38;;;;;;;46.80;28.67;;;-1.60;99.90;;;;;;4994535;28;20578;-66
2023/01/18 10:26:31;;;;;;;45.13;28.37;;;-1.50;99.90;;;;;;4994981;28;20574;-66
2023/01/18 10:29:37;;;;;;;38.17;25.83;;;-1.40;99.90;;;;;;4994791;28;20172;-66
2023/01/18 10:32:09;;;;;;;37.63;26.23;;;-1.20;99.90;;;;;;4994717;28;20199;-67
2023/01/18 10:34:41;;;;;;;38.70;26.23;;;-1.10;99.90;;;;;;5009530;28;20208;-67
2023/01/18 10:37:34;;;;;;;38.20;26.27;;;-1.10;99.90;;;;;;4994513;28;20192;-67
2023/01/18 10:40:04;;;;;;;40.23;26.63;;;-1.00;99.90;;;;;;4993239;28;20185;-67
2023/01/18 10:42:32;;;;;;;39.27;26.10;;;-1.00;99.90;;;;;;5009218;28;20212;-67
2023/01/18 10:44:58;;;;;;;39.27;25.73;;;-1.00;99.90;;;;;;4993178;28;20542;-66
2023/01/18 10:47:24;;;;;;;44.17;28.47;;;-0.90;99.90;;;;;;4994381;28;20196;-67
2023/01/18 10:49:57;;;;;;;45.83;27.53;;;-0.90;99.90;;;;;;4994897;28;20606;-67
2023/01/18 10:52:28;;;;;;;38.37;25.63;;;-0.90;99.90;;;;;;4994240;28;20175;-66
2023/01/18 10:55:00;;;;;;;31.87;22.97;;;-0.80;99.90;;;;;;4993040;28;20747;-67
2023/01/18 10:57:48;;;;;;;38.13;25.37;;;-0.60;99.90;;;;;;5009421;28;20173;-67
2023/01/18 11:00:20;;;;;;;44.97;28.80;;;-0.50;99.90;;;;;;4994449;28;20171;-67
2023/01/18 11:02:48;;;;;;;38.80;27.83;;;-0.50;99.90;;;;;;4992717;28;20638;-67
2023/01/18 11:05:19;;;;;;;41.60;28.93;;;-0.40;99.90;;;;;;4994648;28;20535;-67
2023/01/18 11:07:45;;;;;;;43.93;29.20;;;-0.40;99.90;;;;;;4994087;28;20184;-67
2023/01/18 11:10:26;;;;;;;44.73;28.90;;;-0.30;99.90;;;;;;4994189;28;20173;-67
2023/01/18 11:12:53;;;;;;;45.93;29.70;;;-0.20;99.90;;;;;;4994113;28;20661;-67
2023/01/18 11:15:18;;;;;;;53.63;32.50;;;0.00;99.90;;;;;;4994055;28;20216;-67
2023/01/18 11:17:56;;;;;;;49.60;31.00;;;0.10;99.90;;;;;;4994392;28;20216;-67
2023/01/18 11:20:24;;;;;;;38.90;28.53;;;0.10;99.90;;;;;;4992773;28;20208;-67
2023/01/18 11:22:58;;;;;;;43.87;30.07;;;0.10;99.90;;;;;;4995948;28;20208;-67
2023/01/18 11:25:40;;;;;;;43.30;28.33;;;0.10;99.90;;;;;;4998566;28;20284;-67
2023/01/18 11:28:23;;;;;;;43.10;28.70;;;0.10;99.90;;;;;;4998153;28;20609;-67
2023/01/18 11:31:06;;;;;;;44.70;28.60;;;0.30;99.90;;;;;;4997873;28;20176;-67
2023/01/18 11:33:32;;;;;;;43.30;31.17;;;0.40;99.90;;;;;;4997979;28;20192;-67
2023/01/18 11:36:01;;;;;;;43.40;29.80;;;0.50;99.90;;;;;;4997687;28;20256;-67
2023/01/18 11:38:32;;;;;;;42.73;30.47;;;0.60;99.90;;;;;;4997741;28;20616;-67
2023/01/18 11:41:19;;;;;;;41.40;28.63;;;0.80;99.90;;;;;;4998275;28;20181;-67
2023/01/18 11:44:17;;;;;;;39.17;28.57;;;0.90;99.90;;;;;;5012413;28;20739;-67
2023/01/18 11:46:48;;;;;;;41.80;29.77;;;1.00;99.90;;;;;;4997600;28;20214;-67
2023/01/18 11:49:25;;;;;;;37.60;27.00;;;1.10;99.90;;;;;;4997719;28;20181;-67
2023/01/18 11:52:01;;;;;;;45.33;30.27;;;1.20;99.90;;;;;;4997552;28;20626;-66
2023/01/18 11:54:35;;;;;;;46.40;28.80;;;1.10;99.90;;;;;;4996138;28;20207;-67
2023/01/18 11:57:01;;;;;;;42.07;29.53;;;1.10;99.90;;;;;;4997564;28;20215;-67
2023/01/18 11:59:34;;;;;;;42.97;28.20;;;1.20;99.90;;;;;;4997245;28;20268;-67
2023/01/18 12:02:29;;;;;;;43.83;29.70;;;1.30;99.90;;;;;;5012388;28;20291;-67
2023/01/18 12:05:09;;;;;;;37.60;28.43;;;1.30;99.90;;;;;;4996079;28;20208;-67
2023/01/18 12:08:05;;;;;;;38.30;26.20;;;1.40;99.90;;;;;;4995931;28;20231;-67
2023/01/18 12:10:42;;;;;;;38.73;27.53;;;1.50;99.90;;;;;;4995933;28;20626;-67
2023/01/18 12:13:33;;;;;;;37.23;27.63;;;1.60;99.90;;;;;;4996945;28;20200;-67
2023/01/18 12:16:39;;;;;;;43.10;27.70;;;1.80;99.90;;;;;;4997182;28;20185;-67
2023/01/18 12:19:33;;;;;;;38.83;26.70;;;2.00;99.90;;;;;;4997051;28;20231;-67
2023/01/18 12:22:21;;;;;;;35.10;25.47;;;2.10;99.90;;;;;;4997136;28;20197;-67
2023/01/18 12:25:03;;;;;;;34.33;25.17;;;2.40;99.90;;;;;;4996884;28;20173;-67
2023/01/18 12:27:53;;;;;;;30.40;24.67;;;2.60;99.90;;;;;;4995695;28;20183;-67
2023/01/18 12:30:49;;;;;;;29.37;24.10;;;2.70;99.90;;;;;;4996961;28;20219;-67
2023/01/18 12:33:38;;;;;;;32.17;23.77;;;2.70;99.90;;;;;;4996300;28;20201;-67
2023/01/18 12:36:16;;;;;;;31.73;23.23;;;2.70;99.90;;;;;;4996721;28;20206;-67
2023/01/18 12:38:52;;;;;;;33.87;23.70;;;2.80;99.90;;;;;;4996706;28;20614;-67
2023/01/18 12:41:39;;;;;;;28.67;21.87;;;2.80;99.90;;;;;;4996857;28;20633;-67
2023/01/18 12:44:33;;;;;;;33.27;22.97;;;2.90;99.90;;;;;;4995376;28;20227;-67
2023/01/18 12:47:17;;;;;;;30.10;22.87;;;2.80;99.90;;;;;;4956715;28;20192;-67
2023/01/18 12:49:51;;;;;;;32.13;24.30;;;2.70;99.90;;;;;;4996274;28;20637;-67
2023/01/18 12:52:20;;;;;;;30.87;22.30;;;2.70;99.90;;;;;;4997536;28;20617;-67
2023/01/18 12:54:50;;;;;;;22.53;19.60;;;2.80;99.90;;;;;;4996935;28;20180;-67
2023/01/18 12:57:17;;;;;;;28.33;21.60;;;2.80;99.90;;;;;;5011692;28;20187;-67
2023/01/18 12:59:58;;;;;;;23.57;20.03;;;2.80;99.90;;;;;;4996497;28;20661;-67
2023/01/18 13:02:43;;;;;;;28.47;20.67;;;2.80;99.90;;;;;;4996453;28;20294;-66
2023/01/18 13:05:51;;;;;;;28.23;20.50;;;2.90;99.90;;;;;;5011341;28;20172;-66
2023/01/18 13:08:32;;;;;;;22.00;17.10;;;3.00;99.90;;;;;;4994668;28;20242;-67
2023/01/18 13:11:07;;;;;;;18.97;16.07;;;3.10;99.90;;;;;;4996119;28;20171;-67
2023/01/18 13:13:34;;;;;;;25.73;16.43;;;3.20;99.90;;;;;;4994601;28;20206;-67
2023/01/18 13:16:21;;;;;;;21.17;16.53;;;3.30;99.90;;;;;;4995924;28;20255;-67
2023/01/18 13:18:59;;;;;;;24.10;15.90;;;3.40;99.90;;;;;;4994831;28;20526;-67